Time;durP1;ratioP1;P1;durP2;ratioP2;P2;SDS_P1;SDS_P2;PMS_P1;PMS_P2;Temp;Humidity;BMP_temperature;BMP_pressure;BME280_temperature;BME280_humidity;BME280_pressure;Samples;Min_cycle;Max_cycle;Signal;HPM_P1;HPM_P2
2023/03/26 00:00:49;;;;;;;;;;;;;;;;;;5113002;28;1098;-40
2023/03/26 00:03:17;;;;;;;;;;;;;;;;;;5112857;28;1904;-40
2023/03/26 00:05:46;;;;;;;;;;;;;;;;;;5112530;28;1018;-40
2023/03/26 00:08:15;;;;;;;;;;;;;;;;;;5112758;28;1266;-40
2023/03/26 00:10:43;;;;;;;;;;;;;;;;;;5112731;28;976;-40
2023/03/26 00:13:10;;;;;;;;;;;;;;;;;;5112824;28;1131;-39
2023/03/26 00:15:37;;;;;;;;;;;;;;;;;;5112633;28;1071;-41
2023/03/26 00:18:04;;;;;;;;;;;;;;;;;;5112729;28;1004;-40
2023/03/26 00:20:31;;;;;;;;;;;;;;;;;;5112146;28;1056;-40
2023/03/26 00:23:02;;;;;;;;;;;;;;;;;;5112492;28;1372;-40
2023/03/26 00:25:30;;;;;;;;;;;;;;;;;;5112387;28;990;-40
2023/03/26 00:27:58;;;;;;;;;;;;;;;;;;5111114;28;1455;-40
2023/03/26 00:30:25;;;;;;;;;;;;;;;;;;5112219;28;1017;-40
2023/03/26 00:32:52;;;;;;;;;;;;;;;;;;5111911;28;1074;-40
2023/03/26 00:35:21;;;;;;;;;;;;;;;;;;5112169;28;1130;-39
2023/03/26 00:37:50;;;;;;;;;;;;;;;;;;5110871;28;998;-40
2023/03/26 00:40:17;;;;;;;;;;;;;;;;;;5112081;28;987;-41
2023/03/26 00:42:44;;;;;;;;;;;;;;;;;;5112152;28;1120;-40
2023/03/26 00:45:12;;;;;;;;;;;;;;;;;;5112075;28;1909;-40
2023/03/26 00:47:40;;;;;;;;;;;;;;;;;;5111908;28;1168;-40
2023/03/26 00:50:14;;;;;;;;;;;;;;;;;;5111654;28;986;-40
2023/03/26 00:52:42;;;;;;;;;;;;;;;;;;5110902;28;2368;-40
2023/03/26 00:55:09;;;;;;;;;;;;;;;;;;5093471;28;1386;-41
2023/03/26 00:57:39;;;;;;;;;;;;;;;;;;5111794;28;923;-40
2023/03/26 01:00:09;;;;;;;;;;;;;;;;;;5093340;28;1174;-40
2023/03/26 01:02:36;;;;;;;;;;;;;;;;;;5111819;28;1154;-40
2023/03/26 01:05:24;;;;;;;;;;;;;;;;;;5093341;28;1972;-40
2023/03/26 01:07:51;;;;;;;;;;;;;;;;;;5111722;28;1857;-40
2023/03/26 01:10:21;;;;;;;;;;;;;;;;;;5111681;28;967;-39
2023/03/26 01:12:49;;;;;;;;;;;;;;;;;;5111791;28;1132;-39
2023/03/26 01:15:16;;;;;;;;;;;;;;;;;;5111664;28;1155;-41
2023/03/26 01:17:44;;;;;;;;;;;;;;;;;;5112041;28;1257;-39
2023/03/26 01:20:14;;;;;;;;;;;;;;;;;;5111674;28;1307;-40
2023/03/26 01:22:45;;;;;;;;;;;;;;;;;;5093697;28;1129;-40
2023/03/26 01:25:13;;;;;;;;;;;;;;;;;;5111552;28;1906;-40
2023/03/26 01:27:46;;;;;;;;;;;;;;;;;;5111342;28;1032;-40
2023/03/26 01:30:32;;;;;;;;;;;;;;;;;;5111542;28;1254;-39
2023/03/26 01:33:21;;;;;;;;;;;;;;;;;;5111015;28;1443;-39
2023/03/26 01:35:53;;;;;;;;;;;;;;;;;;5093275;28;1523;-40
2023/03/26 01:38:45;;;;;;;;;;;;;;;;;;5111485;28;1071;-40
2023/03/26 01:41:15;;;;;;;;;;;;;;;;;;5111172;28;1227;-40
2023/03/26 01:43:50;;;;;;;;;;;;;;;;;;5111055;28;1914;-41
2023/03/26 01:46:21;;;;;;;;;;;;;;;;;;5111111;28;1269;-40
2023/03/26 01:48:48;;;;;;;;;;;;;;;;;;5111545;28;954;-41
2023/03/26 01:51:25;;;;;;;;;;;;;;;;;;5115496;28;967;-40
2023/03/26 01:53:52;;;;;;;;;;;;;;;;;;5115416;28;940;-44
2023/03/26 01:56:38;;;;;;;;;;;;;;;;;;5114842;28;1337;-40
2023/03/26 01:59:06;;;;;;;;;;;;;;;;;;5115223;28;1053;-39
2023/03/26 02:01:44;;;;;;;;;;;;;;;;;;5115189;28;1023;-41
2023/03/26 02:04:27;;;;;;;;;;;;;;;;;;5114998;28;1978;-40
2023/03/26 02:07:16;;;;;;;;;;;;;;;;;;5096439;28;1262;-40
2023/03/26 02:09:46;;;;;;;;;;;;;;;;;;5114785;28;2098;-40
2023/03/26 02:12:14;;;;;;;;;;;;;;;;;;5096711;28;1242;-40
2023/03/26 02:14:42;;;;;;;;;;;;;;;;;;5114732;28;914;-41
2023/03/26 02:17:09;;;;;;;;;;;;;;;;;;5096882;28;960;-41
2023/03/26 02:19:40;;;;;;;;;;;;;;;;;;5114209;28;1313;-39
2023/03/26 02:22:10;;;;;;;;;;;;;;;;;;5114495;28;948;-40
2023/03/26 02:24:37;;;;;;;;;;;;;;;;;;5114888;28;1953;-40
2023/03/26 02:27:06;;;;;;;;;;;;;;;;;;5096463;28;1264;-40
2023/03/26 02:29:36;;;;;;;;;;;;;;;;;;5096170;28;1689;-40
2023/03/26 02:32:05;;;;;;;;;;;;;;;;;;5096422;28;1456;-40
2023/03/26 02:34:32;;;;;;;;;;;;;;;;;;5114438;28;1123;-41
2023/03/26 02:36:59;;;;;;;;;;;;;;;;;;5096332;28;1300;-40
2023/03/26 02:39:27;;;;;;;;;;;;;;;;;;5114459;28;1076;-39
2023/03/26 02:41:58;;;;;;;;;;;;;;;;;;5095996;28;1321;-40
2023/03/26 02:44:26;;;;;;;;;;;;;;;;;;5095905;28;1909;-40
2023/03/26 02:46:56;;;;;;;;;;;;;;;;;;5114102;28;1235;-40
2023/03/26 02:49:46;;;;;;;;;;;;;;;;;;5110260;28;1238;-39
2023/03/26 02:52:23;;;;;;;;;;;;;;;;;;5095620;28;1439;-40
2023/03/26 02:54:53;;;;;;;;;;;;;;;;;;5114348;28;1136;-40
2023/03/26 02:57:23;;;;;;;;;;;;;;;;;;5133042;27;1377;-39
2023/03/26 03:00:16;;;;;;;;;;;;;;;;;;5134361;27;1442;-40
2023/03/26 03:03:25;;;;;;;;;;;;;;;;;;5111536;27;1451;-40
2023/03/26 03:06:12;;;;;;;;;;;;;;;;;;5123664;27;1332;-40
2023/03/26 03:08:45;;;;;;;;;;;;;;;;;;5113624;28;996;-40
2023/03/26 03:11:16;;;;;;;;;;;;;;;;;;5113767;28;947;-40
2023/03/26 03:13:45;;;;;;;;;;;;;;;;;;5112320;28;1304;-40
2023/03/26 03:16:22;;;;;;;;;;;;;;;;;;5095632;28;1309;-41
2023/03/26 03:18:55;;;;;;;;;;;;;;;;;;5095380;28;1778;-43
2023/03/26 03:21:33;;;;;;;;;;;;;;;;;;5127139;27;1121;-39
2023/03/26 03:24:00;;;;;;;;;;;;;;;;;;5115348;27;1901;-39
2023/03/26 03:26:32;;;;;;;;;;;;;;;;;;5115084;27;2467;-40
2023/03/26 03:29:11;;;;;;;;;;;;;;;;;;5115452;27;1424;-40
2023/03/26 03:31:40;;;;;;;;;;;;;;;;;;5134203;27;1288;-38
2023/03/26 03:34:17;;;;;;;;;;;;;;;;;;5115179;27;1535;-39
2023/03/26 03:36:49;;;;;;;;;;;;;;;;;;5115275;27;1007;-40
2023/03/26 03:39:31;;;;;;;;;;;;;;;;;;5115364;27;1275;-40
2023/03/26 03:41:58;;;;;;;;;;;;;;;;;;5115298;27;1245;-39
2023/03/26 03:44:25;;;;;;;;;;;;;;;;;;5132624;27;1908;-40
2023/03/26 03:46:54;;;;;;;;;;;;;;;;;;5111691;28;1277;-42
2023/03/26 03:49:22;;;;;;;;;;;;;;;;;;5111988;28;1263;-42
2023/03/26 03:51:50;;;;;;;;;;;;;;;;;;5113065;28;1343;-40
2023/03/26 03:54:25;;;;;;;;;;;;;;;;;;5111849;28;1682;-38
2023/03/26 03:57:05;;;;;;;;;;;;;;;;;;5108071;28;1460;-41
2023/03/26 03:59:35;;;;;;;;;;;;;;;;;;5092362;28;1110;-40
2023/03/26 04:02:05;;;;;;;;;;;;;;;;;;5091175;28;1313;-40
2023/03/26 04:04:39;;;;;;;;;;;;;;;;;;5091058;28;1898;-39
2023/03/26 04:07:11;;;;;;;;;;;;;;;;;;5092612;28;903;-40
2023/03/26 04:10:13;;;;;;;;;;;;;;;;;;5087299;28;1287;-39
2023/03/26 04:13:03;;;;;;;;;;;;;;;;;;5091425;28;1023;-39
2023/03/26 04:15:49;;;;;;;;;;;;;;;;;;5091987;28;1398;-41
2023/03/26 04:18:19;;;;;;;;;;;;;;;;;;5099820;28;1396;-38
2023/03/26 04:20:46;;;;;;;;;;;;;;;;;;5112642;28;1064;-40
2023/03/26 04:23:21;;;;;;;;;;;;;;;;;;5110469;28;1380;-42
2023/03/26 04:25:56;;;;;;;;;;;;;;;;;;5111059;28;1917;-39
2023/03/26 04:28:45;;;;;;;;;;;;;;;;;;5111025;28;1564;-40
2023/03/26 04:31:22;;;;;;;;;;;;;;;;;;5111048;28;1415;-40
2023/03/26 04:33:55;;;;;;;;;;;;;;;;;;5110862;28;1834;-39
2023/03/26 04:36:26;;;;;;;;;;;;;;;;;;5110734;28;1293;-41
2023/03/26 04:38:54;;;;;;;;;;;;;;;;;;5110708;28;2383;-39
2023/03/26 04:41:31;;;;;;;;;;;;;;;;;;5110744;28;1073;-39
2023/03/26 04:44:03;;;;;;;;;;;;;;;;;;5110709;28;1254;-39
2023/03/26 04:46:52;;;;;;;;;;;;;;;;;;5126781;27;1245;-40
2023/03/26 04:49:32;;;;;;;;;;;;;;;;;;5113903;27;2232;-39
2023/03/26 04:52:00;;;;;;;;;;;;;;;;;;5114159;27;1241;-40
2023/03/26 04:54:46;;;;;;;;;;;;;;;;;;5132270;27;1175;-40
2023/03/26 04:57:25;;;;;;;;;;;;;;;;;;5132471;27;1290;-40
2023/03/26 04:59:58;;;;;;;;;;;;;;;;;;5113870;27;1382;-39
2023/03/26 05:02:31;;;;;;;;;;;;;;;;;;5114026;27;1368;-39
2023/03/26 05:05:01;;;;;;;;;;;;;;;;;;5132460;27;1902;-40
2023/03/26 05:07:32;;;;;;;;;;;;;;;;;;5114102;27;1499;-39
2023/03/26 05:10:02;;;;;;;;;;;;;;;;;;5132222;27;1192;-40
2023/03/26 05:12:33;;;;;;;;;;;;;;;;;;5113559;27;1246;-39
2023/03/26 05:15:05;;;;;;;;;;;;;;;;;;5113786;27;1241;-41
2023/03/26 05:17:55;;;;;;;;;;;;;;;;;;5083927;27;1202;-40
2023/03/26 05:20:38;;;;;;;;;;;;;;;;;;5113452;27;1337;-40
2023/03/26 05:23:07;;;;;;;;;;;;;;;;;;5113621;27;1350;-40
2023/03/26 05:25:37;;;;;;;;;;;;;;;;;;5113032;28;2119;-40
2023/03/26 05:28:12;;;;;;;;;;;;;;;;;;5113436;28;1249;-40
2023/03/26 05:31:02;;;;;;;;;;;;;;;;;;5131693;28;1313;-43
2023/03/26 05:33:35;;;;;;;;;;;;;;;;;;5113523;28;1316;-40
2023/03/26 05:36:14;;;;;;;;;;;;;;;;;;5113503;28;1367;-40
2023/03/26 05:38:48;;;;;;;;;;;;;;;;;;5109747;28;1281;-39
2023/03/26 05:41:36;;;;;;;;;;;;;;;;;;5111080;28;1101;-42
2023/03/26 05:44:04;;;;;;;;;;;;;;;;;;5111460;28;981;-48
2023/03/26 05:46:31;;;;;;;;;;;;;;;;;;5089503;28;1980;-41
2023/03/26 05:48:59;;;;;;;;;;;;;;;;;;5089854;28;1549;-39
2023/03/26 05:51:29;;;;;;;;;;;;;;;;;;5089950;28;1234;-40
2023/03/26 05:54:13;;;;;;;;;;;;;;;;;;5089669;28;1301;-38
2023/03/26 05:57:00;;;;;;;;;;;;;;;;;;5090662;28;1337;-40
2023/03/26 05:59:46;;;;;;;;;;;;;;;;;;5090362;28;1466;-40
2023/03/26 06:02:32;;;;;;;;;;;;;;;;;;5091018;28;1209;-46
2023/03/26 06:05:33;;;;;;;;;;;;;;;;;;5077286;28;1912;-42
2023/03/26 06:08:07;;;;;;;;;;;;;;;;;;5089329;28;1418;-48
2023/03/26 06:10:38;;;;;;;;;;;;;;;;;;5090626;28;1087;-39
2023/03/26 06:13:06;;;;;;;;;;;;;;;;;;5089350;28;1261;-39
2023/03/26 06:15:37;;;;;;;;;;;;;;;;;;5088962;28;1557;-39
2023/03/26 06:18:28;;;;;;;;;;;;;;;;;;5089402;28;1447;-39
2023/03/26 06:21:14;;;;;;;;;;;;;;;;;;5090816;28;1000;-40
2023/03/26 06:23:50;;;;;;;;;;;;;;;;;;5089093;28;949;-40
2023/03/26 06:26:36;;;;;;;;;;;;;;;;;;5090543;28;1958;-40
2023/03/26 06:29:17;;;;;;;;;;;;;;;;;;5090478;28;1321;-40
2023/03/26 06:32:10;;;;;;;;;;;;;;;;;;5074173;28;1142;-40
2023/03/26 06:34:56;;;;;;;;;;;;;;;;;;5089335;28;1345;-40
2023/03/26 06:37:23;;;;;;;;;;;;;;;;;;5094224;28;915;-40
2023/03/26 06:39:56;;;;;;;;;;;;;;;;;;5092958;28;1582;-39
2023/03/26 06:43:01;;;;;;;;;;;;;;;;;;5051572;28;1333;-40
2023/03/26 06:45:52;;;;;;;;;;;;;;;;;;5050922;28;1920;-40
2023/03/26 06:48:35;;;;;;;;;;;;;;;;;;5083245;28;981;-41
2023/03/26 06:51:21;;;;;;;;;;;;;;;;;;5093986;28;1233;-40
2023/03/26 06:54:07;;;;;;;;;;;;;;;;;;5093790;28;1246;-40
2023/03/26 06:56:43;;;;;;;;;;;;;;;;;;5106945;28;1296;-40
2023/03/26 06:59:29;;;;;;;;;;;;;;;;;;5107706;28;966;-41
2023/03/26 07:02:15;;;;;;;;;;;;;;;;;;5093757;28;1283;-40
2023/03/26 07:05:01;;;;;;;;;;;;;;;;;;5093744;28;1973;-39
2023/03/26 07:07:47;;;;;;;;;;;;;;;;;;5093742;28;994;-40
2023/03/26 07:10:33;;;;;;;;;;;;;;;;;;5093939;28;1119;-40
2023/03/26 07:13:14;;;;;;;;;;;;;;;;;;5093375;28;1048;-41
2023/03/26 07:16:00;;;;;;;;;;;;;;;;;;5093507;28;967;-40
2023/03/26 07:18:47;;;;;;;;;;;;;;;;;;5093302;28;1418;-39
2023/03/26 07:21:20;;;;;;;;;;;;;;;;;;5091590;28;1075;-40
2023/03/26 07:23:48;;;;;;;;;;;;;;;;;;5091825;28;1360;-42
2023/03/26 07:26:40;;;;;;;;;;;;;;;;;;5091871;28;1918;-40
2023/03/26 07:29:19;;;;;;;;;;;;;;;;;;5092040;28;1449;-39
2023/03/26 07:32:09;;;;;;;;;;;;;;;;;;5092053;28;1471;-40
2023/03/26 07:35:02;;;;;;;;;;;;;;;;;;5092938;28;1133;-44
2023/03/26 07:37:56;;;;;;;;;;;;;;;;;;5091704;28;1421;-40
2023/03/26 07:40:53;;;;;;;;;;;;;;;;;;5092943;28;1225;-41
2023/03/26 07:43:40;;;;;;;;;;;;;;;;;;5092963;28;1194;-40
2023/03/26 07:46:31;;;;;;;;;;;;;;;;;;5103793;28;1923;-39
2023/03/26 07:49:20;;;;;;;;;;;;;;;;;;5112928;28;1237;-40
2023/03/26 07:52:11;;;;;;;;;;;;;;;;;;5113284;28;1008;-39
2023/03/26 07:55:18;;;;;;;;;;;;;;;;;;5029791;28;1406;-40
2023/03/26 07:58:25;;;;;;;;;;;;;;;;;;5112375;28;1350;-39
2023/03/26 08:01:19;;;;;;;;;;;;;;;;;;5112877;28;979;-40
2023/03/26 08:04:05;;;;;;;;;;;;;;;;;;5094610;28;1509;-38
2023/03/26 08:07:27;;;;;;;;;;;;;;;;;;5111316;28;1983;-40
2023/03/26 08:10:48;;;;;;;;;;;;;;;;;;5111412;27;1146;-39
2023/03/26 08:13:35;;;;;;;;;;;;;;;;;;5114486;27;1266;-39
2023/03/26 08:16:15;;;;;;;;;;;;;;;;;;5132909;27;1062;-38
2023/03/26 08:18:49;;;;;;;;;;;;;;;;;;5133312;27;1106;-37
2023/03/26 08:21:19;;;;;;;;;;;;;;;;;;5133279;27;1030;-39
2023/03/26 08:23:49;;;;;;;;;;;;;;;;;;5132758;27;1054;-39
2023/03/26 08:26:35;;;;;;;;;;;;;;;;;;5133108;27;1919;-39
2023/03/26 08:29:09;;;;;;;;;;;;;;;;;;5132778;27;938;-38
2023/03/26 08:31:38;;;;;;;;;;;;;;;;;;5133074;27;1236;-38
2023/03/26 08:34:05;;;;;;;;;;;;;;;;;;5132809;27;1206;-39
2023/03/26 08:36:32;;;;;;;;;;;;;;;;;;5132797;27;966;-38
2023/03/26 08:39:00;;;;;;;;;;;;;;;;;;5132577;27;1309;-38
2023/03/26 08:41:47;;;;;;;;;;;;;;;;;;5114368;27;1205;-37
2023/03/26 08:44:20;;;;;;;;;;;;;;;;;;5110925;27;1107;-38
2023/03/26 08:46:59;;;;;;;;;;;;;;;;;;5131935;27;1914;-39
2023/03/26 08:49:35;;;;;;;;;;;;;;;;;;5132611;27;1101;-38
2023/03/26 08:52:23;;;;;;;;;;;;;;;;;;5132589;27;1104;-38
2023/03/26 08:54:56;;;;;;;;;;;;;;;;;;5132653;27;927;-38
2023/03/26 08:57:43;;;;;;;;;;;;;;;;;;5110329;28;1563;-39
2023/03/26 09:00:30;;;;;;;;;;;;;;;;;;5112126;28;1159;-39
2023/03/26 09:02:57;;;;;;;;;;;;;;;;;;5111485;28;1173;-39
2023/03/26 09:05:31;;;;;;;;;;;;;;;;;;5111511;28;1982;-39
2023/03/26 09:08:01;;;;;;;;;;;;;;;;;;5111625;28;1066;-39
2023/03/26 09:10:47;;;;;;;;;;;;;;;;;;5111312;28;1338;-44
2023/03/26 09:13:38;;;;;;;;;;;;;;;;;;5111947;28;1290;-40
2023/03/26 09:16:24;;;;;;;;;;;;;;;;;;5111450;28;1315;-40
2023/03/26 09:19:03;;;;;;;;;;;;;;;;;;5111441;28;1241;-39
2023/03/26 09:21:37;;;;;;;;;;;;;;;;;;5111309;28;963;-39
2023/03/26 09:24:17;;;;;;;;;;;;;;;;;;5111286;28;1216;-41
2023/03/26 09:27:05;;;;;;;;;;;;;;;;;;5111587;28;1976;-47
2023/03/26 09:30:01;;;;;;;;;;;;;;;;;;5108691;28;995;-39
2023/03/26 09:32:35;;;;;;;;;;;;;;;;;;5110016;28;1196;-39
2023/03/26 09:35:05;;;;;;;;;;;;;;;;;;5092886;28;1074;-40
2023/03/26 09:37:50;;;;;;;;;;;;;;;;;;5111086;28;1003;-40
2023/03/26 09:40:37;;;;;;;;;;;;;;;;;;5092981;28;1208;-42
2023/03/26 09:43:23;;;;;;;;;;;;;;;;;;5111277;28;964;-40
2023/03/26 09:46:08;;;;;;;;;;;;;;;;;;5111198;28;1916;-40
2023/03/26 09:48:46;;;;;;;;;;;;;;;;;;5111420;28;1393;-40
2023/03/26 09:51:32;;;;;;;;;;;;;;;;;;5111549;28;1152;-40
2023/03/26 09:54:02;;;;;;;;;;;;;;;;;;5118387;28;1064;-41
2023/03/26 09:56:40;;;;;;;;;;;;;;;;;;5125920;28;1272;-55
2023/03/26 09:59:26;;;;;;;;;;;;;;;;;;5113529;28;959;-40
2023/03/26 10:02:03;;;;;;;;;;;;;;;;;;5094806;28;1310;-40
2023/03/26 10:04:39;;;;;;;;;;;;;;;;;;5129590;28;1088;-40
2023/03/26 10:07:32;;;;;;;;;;;;;;;;;;5091139;28;1918;-41
2023/03/26 10:10:18;;;;;;;;;;;;;;;;;;5109350;28;1186;-41
2023/03/26 10:12:49;;;;;;;;;;;;;;;;;;5112808;28;1171;-41
2023/03/26 10:15:23;;;;;;;;;;;;;;;;;;5113793;28;1063;-40
2023/03/26 10:18:01;;;;;;;;;;;;;;;;;;5114965;28;1168;-41
2023/03/26 10:20:32;;;;;;;;;;;;;;;;;;5114681;28;1067;-41
2023/03/26 10:22:59;;;;;;;;;;;;;;;;;;5114918;28;1080;-41
2023/03/26 10:25:31;;;;;;;;;;;;;;;;;;5114789;28;1163;-41
2023/03/26 10:28:06;;;;;;;;;;;;;;;;;;5114358;28;1906;-41
2023/03/26 10:30:36;;;;;;;;;;;;;;;;;;5114785;28;1088;-40
2023/03/26 10:33:09;;;;;;;;;;;;;;;;;;5096037;28;1191;-42
2023/03/26 10:35:57;;;;;;;;;;;;;;;;;;5114737;28;1242;-41
2023/03/26 10:38:50;;;;;;;;;;;;;;;;;;5093089;28;1112;-41
2023/03/26 10:41:28;;;;;;;;;;;;;;;;;;5114503;28;1102;-41
2023/03/26 10:44:14;;;;;;;;;;;;;;;;;;5114435;28;1148;-40
2023/03/26 10:47:03;;;;;;;;;;;;;;;;;;5095843;28;1916;-40
2023/03/26 10:49:49;;;;;;;;;;;;;;;;;;5114000;28;1078;-41
2023/03/26 10:52:45;;;;;;;;;;;;;;;;;;5114241;28;1145;-40
2023/03/26 10:55:18;;;;;;;;;;;;;;;;;;5077182;27;1327;-41
2023/03/26 10:57:52;;;;;;;;;;;;;;;;;;5134735;27;1094;-42
2023/03/26 11:00:27;;;;;;;;;;;;;;;;;;5134925;27;1117;-40
2023/03/26 11:03:02;;;;;;;;;;;;;;;;;;5134367;27;1097;-41
2023/03/26 11:05:48;;;;;;;;;;;;;;;;;;5134751;27;1373;-41
2023/03/26 11:08:37;;;;;;;;;;;;;;;;;;5134491;27;1298;-40
2023/03/26 11:11:28;;;;;;;;;;;;;;;;;;5134385;27;989;-42
2023/03/26 11:13:58;;;;;;;;;;;;;;;;;;5105565;27;1374;-40
2023/03/26 11:16:32;;;;;;;;;;;;;;;;;;5134585;27;1055;-40
2023/03/26 11:19:07;;;;;;;;;;;;;;;;;;5115444;27;2139;-41
2023/03/26 11:21:39;;;;;;;;;;;;;;;;;;5133550;27;1299;-40
2023/03/26 11:24:25;;;;;;;;;;;;;;;;;;5115478;27;2108;-41
2023/03/26 11:26:55;;;;;;;;;;;;;;;;;;5134259;27;2187;-40
2023/03/26 11:29:22;;;;;;;;;;;;;;;;;;5115803;27;1873;-40
2023/03/26 11:32:04;;;;;;;;;;;;;;;;;;5134114;27;1923;-39
2023/03/26 11:34:35;;;;;;;;;;;;;;;;;;5134011;27;1988;-41
2023/03/26 11:37:05;;;;;;;;;;;;;;;;;;5133952;27;2042;-40
2023/03/26 11:39:39;;;;;;;;;;;;;;;;;;5133767;27;1824;-40
2023/03/26 11:42:09;;;;;;;;;;;;;;;;;;5134038;27;1888;-40
2023/03/26 11:44:45;;;;;;;;;;;;;;;;;;5133649;27;2079;-40
2023/03/26 11:47:14;;;;;;;;;;;;;;;;;;5133446;27;2016;-39
2023/03/26 11:49:43;;;;;;;;;;;;;;;;;;5133604;27;1449;-40
2023/03/26 11:52:11;;;;;;;;;;;;;;;;;;5133502;27;1868;-40
2023/03/26 11:54:38;;;;;;;;;;;;;;;;;;5133741;27;2143;-40
2023/03/26 11:57:12;;;;;;;;;;;;;;;;;;5098790;28;2048;-40
2023/03/26 11:59:40;;;;;;;;;;;;;;;;;;5125056;27;1921;-40
2023/03/26 12:02:24;;;;;;;;;;;;;;;;;;5133493;27;1955;-45
2023/03/26 12:04:54;;;;;;;;;;;;;;;;;;5133670;27;1947;-39
2023/03/26 12:07:32;;;;;;;;;;;;;;;;;;5133692;27;1986;-40
2023/03/26 12:10:01;;;;;;;;;;;;;;;;;;5133230;27;2151;-40
2023/03/26 12:12:45;;;;;;;;;;;;;;;;;;5133091;27;1917;-39
2023/03/26 12:15:17;;;;;;;;;;;;;;;;;;5133144;27;1944;-40
2023/03/26 12:17:46;;;;;;;;;;;;;;;;;;5133205;27;1856;-40
2023/03/26 12:20:26;;;;;;;;;;;;;;;;;;5114791;27;2095;-40
2023/03/26 12:22:58;;;;;;;;;;;;;;;;;;5133385;27;2022;-39
2023/03/26 12:25:33;;;;;;;;;;;;;;;;;;5132807;27;1996;-45
2023/03/26 12:28:05;;;;;;;;;;;;;;;;;;5132797;27;2006;-39
2023/03/26 12:30:39;;;;;;;;;;;;;;;;;;5132848;27;1913;-40
2023/03/26 12:33:13;;;;;;;;;;;;;;;;;;5132667;27;1958;-39
2023/03/26 12:35:41;;;;;;;;;;;;;;;;;;5132744;27;1977;-40
2023/03/26 12:38:20;;;;;;;;;;;;;;;;;;5132550;27;1833;-40
2023/03/26 12:41:03;;;;;;;;;;;;;;;;;;5132834;27;1935;-41
2023/03/26 12:43:35;;;;;;;;;;;;;;;;;;5132888;27;2279;-40
2023/03/26 12:46:32;;;;;;;;;;;;;;;;;;5132446;27;1961;-40
2023/03/26 12:49:21;;;;;;;;;;;;;;;;;;5132562;27;1873;-45
2023/03/26 12:52:01;;;;;;;;;;;;;;;;;;5132503;27;1965;-47
2023/03/26 12:54:43;;;;;;;;;;;;;;;;;;5132783;27;1919;-49
2023/03/26 12:57:19;;;;;;;;;;;;;;;;;;5115343;27;2229;-48
2023/03/26 13:00:09;;;;;;;;;;;;;;;;;;5111870;28;1853;-40
2023/03/26 13:02:51;;;;;;;;;;;;;;;;;;5111964;28;1922;-40
2023/03/26 13:05:35;;;;;;;;;;;;;;;;;;5111423;28;1871;-43
2023/03/26 13:08:10;;;;;;;;;;;;;;;;;;5111525;28;1943;-41
2023/03/26 13:10:48;;;;;;;;;;;;;;;;;;5112002;28;1988;-53
2023/03/26 13:13:21;;;;;;;;;;;;;;;;;;5118348;27;2038;-40
2023/03/26 13:15:51;;;;;;;;;;;;;;;;;;5132414;27;2230;-40
2023/03/26 13:18:24;;;;;;;;;;;;;;;;;;5113824;27;1952;-42
2023/03/26 13:20:52;;;;;;;;;;;;;;;;;;5132163;27;1904;-40
2023/03/26 13:23:37;;;;;;;;;;;;;;;;;;5132174;27;1967;-40
2023/03/26 13:26:09;;;;;;;;;;;;;;;;;;5131941;27;1758;-45
2023/03/26 13:28:56;;;;;;;;;;;;;;;;;;5131970;27;1986;-40
2023/03/26 13:31:30;;;;;;;;;;;;;;;;;;5131755;28;1946;-41
2023/03/26 13:34:18;;;;;;;;;;;;;;;;;;5132064;28;2049;-45
2023/03/26 13:36:54;;;;;;;;;;;;;;;;;;5110418;28;2147;-40
2023/03/26 13:39:22;;;;;;;;;;;;;;;;;;5131929;28;1843;-40
2023/03/26 13:41:53;;;;;;;;;;;;;;;;;;5131815;28;1907;-47
2023/03/26 13:44:43;;;;;;;;;;;;;;;;;;5132035;27;1676;-41
2023/03/26 13:47:23;;;;;;;;;;;;;;;;;;5135842;27;2321;-40
2023/03/26 13:49:53;;;;;;;;;;;;;;;;;;5136169;27;1854;-40
2023/03/26 13:52:23;;;;;;;;;;;;;;;;;;5136268;27;1929;-40
2023/03/26 13:55:11;;;;;;;;;;;;;;;;;;5135953;27;1549;-40
2023/03/26 13:57:45;;;;;;;;;;;;;;;;;;5115622;28;2005;-40
2023/03/26 14:00:15;;;;;;;;;;;;;;;;;;5115404;28;2059;-40
2023/03/26 14:02:43;;;;;;;;;;;;;;;;;;5115494;28;2123;-39
2023/03/26 14:05:14;;;;;;;;;;;;;;;;;;5119342;27;1781;-46
2023/03/26 14:07:41;;;;;;;;;;;;;;;;;;5135518;27;1963;-40
2023/03/26 14:10:13;;;;;;;;;;;;;;;;;;5135808;27;1828;-40
2023/03/26 14:12:48;;;;;;;;;;;;;;;;;;5135599;27;1803;-41
2023/03/26 14:15:23;;;;;;;;;;;;;;;;;;5135428;27;1819;-43
2023/03/26 14:18:06;;;;;;;;;;;;;;;;;;5135575;27;1948;-46
2023/03/26 14:20:49;;;;;;;;;;;;;;;;;;5135511;27;2236;-52
2023/03/26 14:23:24;;;;;;;;;;;;;;;;;;5135347;27;2266;-40
2023/03/26 14:25:55;;;;;;;;;;;;;;;;;;5135495;27;1888;-40
2023/03/26 14:28:28;;;;;;;;;;;;;;;;;;5135353;27;1925;-41
2023/03/26 14:31:08;;;;;;;;;;;;;;;;;;5135226;27;1949;-40
2023/03/26 14:34:08;;;;;;;;;;;;;;;;;;5135253;27;1812;-40
2023/03/26 14:36:35;;;;;;;;;;;;;;;;;;5105359;27;1952;-39
2023/03/26 14:39:25;;;;;;;;;;;;;;;;;;5135211;27;2024;-41
2023/03/26 14:42:07;;;;;;;;;;;;;;;;;;5134977;27;2062;-41
2023/03/26 14:44:55;;;;;;;;;;;;;;;;;;5135371;27;1935;-39
2023/03/26 14:47:23;;;;;;;;;;;;;;;;;;5114780;27;1999;-41
2023/03/26 14:50:07;;;;;;;;;;;;;;;;;;5114117;28;1997;-41
2023/03/26 14:52:50;;;;;;;;;;;;;;;;;;5114551;28;1916;-41
2023/03/26 14:55:17;;;;;;;;;;;;;;;;;;5114424;28;1751;-42
2023/03/26 14:57:48;;;;;;;;;;;;;;;;;;5095846;28;2146;-41
2023/03/26 15:00:21;;;;;;;;;;;;;;;;;;5114235;28;2050;-42
2023/03/26 15:03:15;;;;;;;;;;;;;;;;;;5114145;28;2100;-49
2023/03/26 15:05:55;;;;;;;;;;;;;;;;;;5112706;28;2237;-46
2023/03/26 15:08:32;;;;;;;;;;;;;;;;;;5114147;28;2018;-41
2023/03/26 15:11:06;;;;;;;;;;;;;;;;;;5114270;28;2084;-41
2023/03/26 15:13:53;;;;;;;;;;;;;;;;;;5113977;28;2084;-40
2023/03/26 15:16:39;;;;;;;;;;;;;;;;;;5113717;28;2036;-41
2023/03/26 15:19:06;;;;;;;;;;;;;;;;;;5113994;28;2139;-40
2023/03/26 15:21:36;;;;;;;;;;;;;;;;;;5113995;28;1979;-40
2023/03/26 15:24:22;;;;;;;;;;;;;;;;;;5114049;28;1764;-40
2023/03/26 15:26:49;;;;;;;;;;;;;;;;;;5113340;28;2048;-41
2023/03/26 15:29:28;;;;;;;;;;;;;;;;;;5113594;28;2203;-40
2023/03/26 15:32:15;;;;;;;;;;;;;;;;;;5113604;28;2188;-41
2023/03/26 15:35:02;;;;;;;;;;;;;;;;;;5113674;28;1888;-40
2023/03/26 15:37:50;;;;;;;;;;;;;;;;;;5113607;28;2152;-41
2023/03/26 15:40:26;;;;;;;;;;;;;;;;;;5113293;28;1831;-42
2023/03/26 15:43:05;;;;;;;;;;;;;;;;;;5113393;28;2064;-41
2023/03/26 15:45:35;;;;;;;;;;;;;;;;;;5112964;28;2160;-40
2023/03/26 15:48:03;;;;;;;;;;;;;;;;;;5113079;28;2057;-41
2023/03/26 15:50:37;;;;;;;;;;;;;;;;;;5113413;28;2071;-40
2023/03/26 15:53:22;;;;;;;;;;;;;;;;;;5113227;28;2045;-40
2023/03/26 15:56:06;;;;;;;;;;;;;;;;;;5118603;27;1646;-41
2023/03/26 15:58:43;;;;;;;;;;;;;;;;;;5133780;27;1994;-42
2023/03/26 16:01:17;;;;;;;;;;;;;;;;;;5133859;27;1895;-41
2023/03/26 16:03:52;;;;;;;;;;;;;;;;;;5133732;27;1969;-41
2023/03/26 16:06:29;;;;;;;;;;;;;;;;;;5133198;27;2031;-40
2023/03/26 16:09:06;;;;;;;;;;;;;;;;;;5132788;27;2129;-46
2023/03/26 16:11:43;;;;;;;;;;;;;;;;;;5133222;27;2167;-40
2023/03/26 16:14:17;;;;;;;;;;;;;;;;;;5133691;27;1818;-41
2023/03/26 16:16:53;;;;;;;;;;;;;;;;;;5132957;27;2193;-44
2023/03/26 16:19:20;;;;;;;;;;;;;;;;;;5133303;27;1828;-40
2023/03/26 16:21:59;;;;;;;;;;;;;;;;;;5133350;27;1950;-40
2023/03/26 16:24:29;;;;;;;;;;;;;;;;;;5133298;27;1727;-41
2023/03/26 16:27:25;;;;;;;;;;;;;;;;;;5133183;27;2000;-43
2023/03/26 16:29:59;;;;;;;;;;;;;;;;;;5119852;27;2070;-41
2023/03/26 16:32:35;;;;;;;;;;;;;;;;;;5132859;27;1935;-41
2023/03/26 16:35:15;;;;;;;;;;;;;;;;;;5132842;27;2402;-38
2023/03/26 16:38:03;;;;;;;;;;;;;;;;;;5132855;27;1962;-40
2023/03/26 16:40:35;;;;;;;;;;;;;;;;;;5132809;27;2176;-42
2023/03/26 16:43:20;;;;;;;;;;;;;;;;;;5133101;27;1818;-40
2023/03/26 16:46:04;;;;;;;;;;;;;;;;;;5132646;27;1898;-43
2023/03/26 16:48:35;;;;;;;;;;;;;;;;;;5132727;27;1911;-41
2023/03/26 16:51:26;;;;;;;;;;;;;;;;;;5132624;27;1756;-41
2023/03/26 16:54:08;;;;;;;;;;;;;;;;;;5124211;27;1713;-41
2023/03/26 16:56:48;;;;;;;;;;;;;;;;;;5132308;27;2103;-40
2023/03/26 16:59:35;;;;;;;;;;;;;;;;;;5132325;27;1906;-41
2023/03/26 17:02:21;;;;;;;;;;;;;;;;;;5132485;27;1984;-40
2023/03/26 17:04:50;;;;;;;;;;;;;;;;;;5132139;27;2022;-41
2023/03/26 17:07:23;;;;;;;;;;;;;;;;;;5132300;27;1989;-41
2023/03/26 17:09:50;;;;;;;;;;;;;;;;;;5132033;27;1831;-40
2023/03/26 17:12:27;;;;;;;;;;;;;;;;;;5132512;27;2036;-42
2023/03/26 17:14:54;;;;;;;;;;;;;;;;;;5132256;27;2024;-52
2023/03/26 17:17:21;;;;;;;;;;;;;;;;;;5131988;27;2135;-48
2023/03/26 17:19:48;;;;;;;;;;;;;;;;;;5131369;27;1880;-41
2023/03/26 17:22:18;;;;;;;;;;;;;;;;;;5132345;27;2384;-40
2023/03/26 17:25:10;;;;;;;;;;;;;;;;;;5113612;28;1827;-41
2023/03/26 17:28:14;;;;;;;;;;;;;;;;;;5113418;28;1904;-43
2023/03/26 17:30:53;;;;;;;;;;;;;;;;;;5132523;27;2099;-40
2023/03/26 17:33:26;;;;;;;;;;;;;;;;;;5131956;28;1875;-44
2023/03/26 17:36:12;;;;;;;;;;;;;;;;;;5131874;28;1971;-40
2023/03/26 17:38:39;;;;;;;;;;;;;;;;;;5132086;28;1963;-42
2023/03/26 17:41:11;;;;;;;;;;;;;;;;;;5132063;28;1986;-40
2023/03/26 17:43:42;;;;;;;;;;;;;;;;;;5132127;28;2104;-41
2023/03/26 17:46:31;;;;;;;;;;;;;;;;;;5131900;28;2085;-40
2023/03/26 17:49:02;;;;;;;;;;;;;;;;;;5131802;28;2148;-40
2023/03/26 17:51:47;;;;;;;;;;;;;;;;;;5131952;28;1732;-40
2023/03/26 17:54:23;;;;;;;;;;;;;;;;;;5132008;28;1828;-43
2023/03/26 17:56:51;;;;;;;;;;;;;;;;;;5117088;28;1952;-40
2023/03/26 17:59:22;;;;;;;;;;;;;;;;;;5111256;28;2052;-40
2023/03/26 18:01:59;;;;;;;;;;;;;;;;;;5111259;28;1905;-39
2023/03/26 18:04:37;;;;;;;;;;;;;;;;;;5111279;28;2197;-40
2023/03/26 18:07:08;;;;;;;;;;;;;;;;;;5111322;28;2074;-40
2023/03/26 18:09:47;;;;;;;;;;;;;;;;;;5111171;28;1931;-39
2023/03/26 18:12:33;;;;;;;;;;;;;;;;;;5111306;28;2139;-40